Meath Environmental Platform

Observations for Trim Market St

Time AQI Temp °C Hum % Pres Pa CO μg/m³ H₂S μg/m³ NO μg/m³ NO₂ μg/m³ O₃ μg/m³ SO₂ μg/m³ PM1 μg/m³ PM2.5 μg/m³ PM10 μg/m³
Tuesday 25 August 2026
17:41 3 21.2 60 57,623 0.2 0.91 1.26 61.9 29.95 0 4.28 8.03 11.65
17:40 3 21.2 60 57,631 0.01 0 0.69 22.76 62.42 0 4.28 7.54 11.65
17:39 3 21.3 60 57,634 0.01 0 0.77 23.81 63.51 0 4.28 7.04 10.97
17:38 3 21.3 60 57,639 0.1 0 0.88 27.65 64.44 0 3.56 7.54 10.28
17:36 3 21.3 59 57,651 0 0 1.18 21.96 66.06 0 4.99 8.06 12.36
17:35 3 21.3 59 57,657 0 0 1.29 25.29 70.61 0 4.99 8.06 11.67
17:32 3 21.4 59 57,667 0 0 1.17 21.52 65.55 0 4.99 6.57 8.91
17:27 3 21.5 59 57,670 0 0 0.96 25.15 67.22 0 4.99 8.09 10.99
17:23 3 21.5 59 57,677 0 0.03 1.12 24.78 64.33 0 6.41 10.11 14.46
17:19 3 21.6 58 57,695 0 1.45 1.2 28.11 75.55 0 4.28 6.11 8.22
17:17 3 21.7 58 57,698 0 0.37 1.09 20.92 68.15 0 5.7 8.63 13.1
17:13 3 21.8 58 57,702 0 4.36 1.36 32.47 69.24 0 4.99 7.14 9.62
17:12 3 21.8 58 57,708 0 5.07 1.36 40.22 68.53 0 6.41 11.17 15.91
17:11 3 21.8 58 57,714 0 6.63 1.3 56.44 60.65 0 5.7 7.16 9.63
17:10 3 21.8 58 57,720 0 4.49 1.26 40.22 68.06 0 4.28 7.17 11.73
17:09 3 21.9 57 57,725 0 4.33 1.07 34.63 72 0 4.99 7.18 9.63
17:08 3 21.9 57 57,734 0 3.11 0.93 30.13 70.02 0 4.99 8.2 12.45
17:07 3 21.9 57 57,738 0 4.06 0.88 31.25 68.97 0 4.99 8.71 12.45
17:06 3 22 57 57,739 0 5.01 0.9 34.53 76.88 0 4.99 8.21 13.17
17:05 3 22 57 57,739 0 3.03 0.96 27.72 69.67 0 5.7 7.71 10.35